sensor_id;sensor_type;location;lat;lon;timestamp;temperature;humidity
21895;DHT22;11112;51.270;7.224;2022-12-07T00:01:05;6.90;99.90
21895;DHT22;11112;51.270;7.224;2022-12-07T00:03:35;6.90;99.90
21895;DHT22;11112;51.270;7.224;2022-12-07T00:06:03;6.90;99.90
21895;DHT22;11112;51.270;7.224;2022-12-07T00:08:33;6.90;99.90
21895;DHT22;11112;51.270;7.224;2022-12-07T00:11:02;6.90;99.90
21895;DHT22;11112;51.270;7.224;2022-12-07T00:13:30;6.90;99.90
21895;DHT22;11112;51.270;7.224;2022-12-07T00:16:03;6.90;99.90
21895;DHT22;11112;51.270;7.224;2022-12-07T00:18:31;6.90;99.90
21895;DHT22;11112;51.270;7.224;2022-12-07T00:21:00;6.90;99.90
21895;DHT22;11112;51.270;7.224;2022-12-07T00:23:30;6.90;99.90
21895;DHT22;11112;51.270;7.224;2022-12-07T00:26:03;6.90;99.90
21895;DHT22;11112;51.270;7.224;2022-12-07T00:28:32;6.90;99.90
21895;DHT22;11112;51.270;7.224;2022-12-07T00:31:02;6.90;99.90
21895;DHT22;11112;51.270;7.224;2022-12-07T00:33:32;6.90;99.90
21895;DHT22;11112;51.270;7.224;2022-12-07T00:36:00;6.90;99.90
21895;DHT22;11112;51.270;7.224;2022-12-07T00:38:31;7.00;99.90
21895;DHT22;11112;51.270;7.224;2022-12-07T00:41:01;7.00;99.90
21895;DHT22;11112;51.270;7.224;2022-12-07T00:43:29;6.90;99.90
21895;DHT22;11112;51.270;7.224;2022-12-07T00:45:58;7.00;99.90
21895;DHT22;11112;51.270;7.224;2022-12-07T00:48:27;7.00;99.90
21895;DHT22;11112;51.270;7.224;2022-12-07T00:50:56;7.00;99.90
21895;DHT22;11112;51.270;7.224;2022-12-07T00:53:23;7.00;99.90
21895;DHT22;11112;51.270;7.224;2022-12-07T00:55:52;6.90;99.90
21895;DHT22;11112;51.270;7.224;2022-12-07T00:58:21;6.90;99.90
21895;DHT22;11112;51.270;7.224;2022-12-07T01:00:49;6.90;99.90
21895;DHT22;11112;51.270;7.224;2022-12-07T01:03:16;7.00;99.90
21895;DHT22;11112;51.270;7.224;2022-12-07T01:05:51;6.90;99.90
21895;DHT22;11112;51.270;7.224;2022-12-07T01:08:22;6.90;99.90
21895;DHT22;11112;51.270;7.224;2022-12-07T01:10:56;6.90;99.90
21895;DHT22;11112;51.270;7.224;2022-12-07T01:13:24;6.90;99.90
21895;DHT22;11112;51.270;7.224;2022-12-07T01:15:56;7.00;99.90
21895;DHT22;11112;51.270;7.224;2022-12-07T01:18:25;6.90;99.90
21895;DHT22;11112;51.270;7.224;2022-12-07T01:21:02;6.90;99.90
21895;DHT22;11112;51.270;7.224;2022-12-07T01:23:31;7.00;99.90
21895;DHT22;11112;51.270;7.224;2022-12-07T01:26:00;6.90;99.90
21895;DHT22;11112;51.270;7.224;2022-12-07T01:28:29;7.00;99.90
21895;DHT22;11112;51.270;7.224;2022-12-07T01:30:58;6.90;99.90
21895;DHT22;11112;51.270;7.224;2022-12-07T01:33:27;6.90;99.90
21895;DHT22;11112;51.270;7.224;2022-12-07T01:36:02;6.90;99.90
21895;DHT22;11112;51.270;7.224;2022-12-07T01:38:30;6.90;99.90
21895;DHT22;11112;51.270;7.224;2022-12-07T01:40:59;6.90;99.90
21895;DHT22;11112;51.270;7.224;2022-12-07T01:43:28;6.90;99.90
21895;DHT22;11112;51.270;7.224;2022-12-07T01:45:57;7.00;99.90
21895;DHT22;11112;51.270;7.224;2022-12-07T01:48:28;7.00;99.90
21895;DHT22;11112;51.270;7.224;2022-12-07T01:51:03;7.00;99.90
21895;DHT22;11112;51.270;7.224;2022-12-07T01:53:34;7.00;99.90
21895;DHT22;11112;51.270;7.224;2022-12-07T01:56:03;6.90;99.90
21895;DHT22;11112;51.270;7.224;2022-12-07T01:58:30;7.00;99.90
21895;DHT22;11112;51.270;7.224;2022-12-07T02:00:58;7.00;99.90
21895;DHT22;11112;51.270;7.224;2022-12-07T02:03:30;7.00;99.90
21895;DHT22;11112;51.270;7.224;2022-12-07T02:06:00;7.00;99.90
21895;DHT22;11112;51.270;7.224;2022-12-07T02:08:29;7.00;99.90
21895;DHT22;11112;51.270;7.224;2022-12-07T02:10:56;7.00;99.90
21895;DHT22;11112;51.270;7.224;2022-12-07T02:13:26;7.00;99.90
21895;DHT22;11112;51.270;7.224;2022-12-07T02:16:11;7.00;99.90
21895;DHT22;11112;51.270;7.224;2022-12-07T02:18:56;7.00;99.90
21895;DHT22;11112;51.270;7.224;2022-12-07T02:21:38;7.00;99.90
21895;DHT22;11112;51.270;7.224;2022-12-07T02:24:27;7.00;99.90
21895;DHT22;11112;51.270;7.224;2022-12-07T02:27:18;7.00;99.90
21895;DHT22;11112;51.270;7.224;2022-12-07T02:30:00;7.00;99.90
21895;DHT22;11112;51.270;7.224;2022-12-07T02:32:33;7.00;99.90
21895;DHT22;11112;51.270;7.224;2022-12-07T02:35:11;7.00;99.90
21895;DHT22;11112;51.270;7.224;2022-12-07T02:37:43;7.00;99.90
21895;DHT22;11112;51.270;7.224;2022-12-07T02:40:18;7.00;99.90
21895;DHT22;11112;51.270;7.224;2022-12-07T02:42:53;7.00;99.90
21895;DHT22;11112;51.270;7.224;2022-12-07T02:45:26;7.00;99.90
21895;DHT22;11112;51.270;7.224;2022-12-07T02:47:56;7.00;99.90
21895;DHT22;11112;51.270;7.224;2022-12-07T02:50:26;7.00;99.90
21895;DHT22;11112;51.270;7.224;2022-12-07T02:52:54;7.00;99.90
21895;DHT22;11112;51.270;7.224;2022-12-07T02:55:26;7.00;99.90
21895;DHT22;11112;51.270;7.224;2022-12-07T02:58:14;7.00;99.90
21895;DHT22;11112;51.270;7.224;2022-12-07T03:00:57;7.00;99.90
21895;DHT22;11112;51.270;7.224;2022-12-07T03:03:32;7.00;99.90
21895;DHT22;11112;51.270;7.224;2022-12-07T03:06:08;7.00;99.90
21895;DHT22;11112;51.270;7.224;2022-12-07T03:08:47;7.00;99.90
21895;DHT22;11112;51.270;7.224;2022-12-07T03:11:23;7.00;99.90
21895;DHT22;11112;51.270;7.224;2022-12-07T03:13:59;7.00;99.90
21895;DHT22;11112;51.270;7.224;2022-12-07T03:16:35;7.00;99.90
21895;DHT22;11112;51.270;7.224;2022-12-07T03:19:08;7.00;99.90
21895;DHT22;11112;51.270;7.224;2022-12-07T03:21:39;7.00;99.90
21895;DHT22;11112;51.270;7.224;2022-12-07T03:24:10;7.10;99.90
21895;DHT22;11112;51.270;7.224;2022-12-07T03:26:42;7.00;99.90
21895;DHT22;11112;51.270;7.224;2022-12-07T03:29:15;7.10;99.90
21895;DHT22;11112;51.270;7.224;2022-12-07T03:31:47;7.00;99.90
21895;DHT22;11112;51.270;7.224;2022-12-07T03:34:18;7.00;99.90
21895;DHT22;11112;51.270;7.224;2022-12-07T03:36:52;7.00;99.90
21895;DHT22;11112;51.270;7.224;2022-12-07T03:39:27;7.00;99.90
21895;DHT22;11112;51.270;7.224;2022-12-07T03:42:00;7.00;99.90
21895;DHT22;11112;51.270;7.224;2022-12-07T03:44:31;7.00;99.90
21895;DHT22;11112;51.270;7.224;2022-12-07T03:47:04;7.00;99.90
21895;DHT22;11112;51.270;7.224;2022-12-07T03:49:37;7.10;99.90
21895;DHT22;11112;51.270;7.224;2022-12-07T03:52:12;7.00;99.90
21895;DHT22;11112;51.270;7.224;2022-12-07T03:54:49;7.10;99.90
21895;DHT22;11112;51.270;7.224;2022-12-07T03:57:21;7.10;99.90
21895;DHT22;11112;51.270;7.224;2022-12-07T03:59:50;7.10;99.90
21895;DHT22;11112;51.270;7.224;2022-12-07T04:02:19;7.10;99.90
21895;DHT22;11112;51.270;7.224;2022-12-07T04:04:47;7.00;99.90
21895;DHT22;11112;51.270;7.224;2022-12-07T04:07:14;7.00;99.90
21895;DHT22;11112;51.270;7.224;2022-12-07T04:09:42;7.00;99.90
21895;DHT22;11112;51.270;7.224;2022-12-07T04:12:09;7.00;99.90
21895;DHT22;11112;51.270;7.224;2022-12-07T04:14:36;7.00;99.90
21895;DHT22;11112;51.270;7.224;2022-12-07T04:17:04;7.00;99.90
21895;DHT22;11112;51.270;7.224;2022-12-07T04:19:33;7.00;99.90
21895;DHT22;11112;51.270;7.224;2022-12-07T04:22:02;7.00;99.90
21895;DHT22;11112;51.270;7.224;2022-12-07T04:24:32;7.00;99.90
21895;DHT22;11112;51.270;7.224;2022-12-07T04:27:00;7.00;99.90
21895;DHT22;11112;51.270;7.224;2022-12-07T04:29:27;7.00;99.90
21895;DHT22;11112;51.270;7.224;2022-12-07T04:31:54;7.00;99.90
21895;DHT22;11112;51.270;7.224;2022-12-07T04:34:21;7.00;99.90
21895;DHT22;11112;51.270;7.224;2022-12-07T04:36:50;6.90;99.90
21895;DHT22;11112;51.270;7.224;2022-12-07T04:39:20;6.90;99.90
21895;DHT22;11112;51.270;7.224;2022-12-07T04:41:49;7.00;99.90
21895;DHT22;11112;51.270;7.224;2022-12-07T04:44:17;7.00;99.90
21895;DHT22;11112;51.270;7.224;2022-12-07T04:46:45;7.00;99.90
21895;DHT22;11112;51.270;7.224;2022-12-07T04:49:13;7.00;99.90
21895;DHT22;11112;51.270;7.224;2022-12-07T04:51:41;7.00;99.90
21895;DHT22;11112;51.270;7.224;2022-12-07T04:54:11;7.00;99.90
21895;DHT22;11112;51.270;7.224;2022-12-07T04:56:38;7.00;99.90
21895;DHT22;11112;51.270;7.224;2022-12-07T04:59:06;6.90;99.90
21895;DHT22;11112;51.270;7.224;2022-12-07T05:01:33;6.90;99.90
21895;DHT22;11112;51.270;7.224;2022-12-07T05:04:01;6.90;99.90
21895;DHT22;11112;51.270;7.224;2022-12-07T05:06:28;6.90;99.90
21895;DHT22;11112;51.270;7.224;2022-12-07T05:08:55;6.90;99.90
21895;DHT22;11112;51.270;7.224;2022-12-07T05:11:24;6.90;99.90
21895;DHT22;11112;51.270;7.224;2022-12-07T05:14:09;6.90;99.90
21895;DHT22;11112;51.270;7.224;2022-12-07T05:16:38;7.00;99.90
21895;DHT22;11112;51.270;7.224;2022-12-07T05:19:06;7.00;99.90
21895;DHT22;11112;51.270;7.224;2022-12-07T05:21:35;7.00;99.90
21895;DHT22;11112;51.270;7.224;2022-12-07T05:24:02;7.00;99.90
21895;DHT22;11112;51.270;7.224;2022-12-07T05:26:31;7.00;99.90
21895;DHT22;11112;51.270;7.224;2022-12-07T05:28:59;7.00;99.90
21895;DHT22;11112;51.270;7.224;2022-12-07T05:31:27;7.00;99.90
21895;DHT22;11112;51.270;7.224;2022-12-07T05:33:56;7.00;99.90
21895;DHT22;11112;51.270;7.224;2022-12-07T05:36:23;7.00;99.90
21895;DHT22;11112;51.270;7.224;2022-12-07T05:38:55;7.00;99.90
21895;DHT22;11112;51.270;7.224;2022-12-07T05:41:22;7.00;99.90
21895;DHT22;11112;51.270;7.224;2022-12-07T05:44:10;7.00;99.90
21895;DHT22;11112;51.270;7.224;2022-12-07T05:46:38;7.00;99.90
21895;DHT22;11112;51.270;7.224;2022-12-07T05:49:06;6.90;99.90
21895;DHT22;11112;51.270;7.224;2022-12-07T05:51:33;7.00;99.90
21895;DHT22;11112;51.270;7.224;2022-12-07T05:54:01;7.00;99.90
21895;DHT22;11112;51.270;7.224;2022-12-07T05:56:28;7.00;99.90
21895;DHT22;11112;51.270;7.224;2022-12-07T05:58:55;7.00;99.90
21895;DHT22;11112;51.270;7.224;2022-12-07T06:01:41;7.00;99.90
21895;DHT22;11112;51.270;7.224;2022-12-07T06:04:09;7.00;99.90
21895;DHT22;11112;51.270;7.224;2022-12-07T06:06:36;7.00;99.90
21895;DHT22;11112;51.270;7.224;2022-12-07T06:09:04;7.00;99.90
21895;DHT22;11112;51.270;7.224;2022-12-07T06:11:31;7.00;99.90
21895;DHT22;11112;51.270;7.224;2022-12-07T06:14:16;6.90;99.90
21895;DHT22;11112;51.270;7.224;2022-12-07T06:16:44;7.00;99.90
21895;DHT22;11112;51.270;7.224;2022-12-07T06:19:12;7.00;99.90
21895;DHT22;11112;51.270;7.224;2022-12-07T06:21:39;7.00;99.90
21895;DHT22;11112;51.270;7.224;2022-12-07T06:24:08;7.00;99.90
21895;DHT22;11112;51.270;7.224;2022-12-07T06:26:37;7.00;99.90
21895;DHT22;11112;51.270;7.224;2022-12-07T06:29:04;7.00;99.90
21895;DHT22;11112;51.270;7.224;2022-12-07T06:31:33;7.00;99.90
21895;DHT22;11112;51.270;7.224;2022-12-07T06:34:03;7.00;99.90
21895;DHT22;11112;51.270;7.224;2022-12-07T06:36:33;7.00;99.90
21895;DHT22;11112;51.270;7.224;2022-12-07T06:39:00;7.00;99.90
21895;DHT22;11112;51.270;7.224;2022-12-07T06:41:28;7.00;99.90
21895;DHT22;11112;51.270;7.224;2022-12-07T06:43:55;7.00;99.90
21895;DHT22;11112;51.270;7.224;2022-12-07T06:46:23;7.00;99.90
21895;DHT22;11112;51.270;7.224;2022-12-07T06:48:50;7.00;99.90
21895;DHT22;11112;51.270;7.224;2022-12-07T06:51:28;7.00;99.90
21895;DHT22;11112;51.270;7.224;2022-12-07T06:53:55;7.00;99.90
21895;DHT22;11112;51.270;7.224;2022-12-07T06:56:23;7.00;99.90
21895;DHT22;11112;51.270;7.224;2022-12-07T06:58:50;6.90;99.90
21895;DHT22;11112;51.270;7.224;2022-12-07T07:01:18;7.00;99.90
21895;DHT22;11112;51.270;7.224;2022-12-07T07:03:46;7.00;99.90
21895;DHT22;11112;51.270;7.224;2022-12-07T07:06:16;7.00;99.90
21895;DHT22;11112;51.270;7.224;2022-12-07T07:08:46;7.00;99.90
21895;DHT22;11112;51.270;7.224;2022-12-07T07:11:13;7.00;99.90
21895;DHT22;11112;51.270;7.224;2022-12-07T07:13:41;6.90;99.90
21895;DHT22;11112;51.270;7.224;2022-12-07T07:16:08;6.90;99.90
21895;DHT22;11112;51.270;7.224;2022-12-07T07:18:36;6.90;99.90
21895;DHT22;11112;51.270;7.224;2022-12-07T07:21:04;6.90;99.90
21895;DHT22;11112;51.270;7.224;2022-12-07T07:23:32;6.90;99.90
21895;DHT22;11112;51.270;7.224;2022-12-07T07:26:01;6.90;99.90
21895;DHT22;11112;51.270;7.224;2022-12-07T07:28:29;7.00;99.90
21895;DHT22;11112;51.270;7.224;2022-12-07T07:30:56;7.00;99.90
21895;DHT22;11112;51.270;7.224;2022-12-07T07:33:23;7.00;99.90
21895;DHT22;11112;51.270;7.224;2022-12-07T07:35:50;6.90;99.90
21895;DHT22;11112;51.270;7.224;2022-12-07T07:38:17;6.90;99.90
21895;DHT22;11112;51.270;7.224;2022-12-07T07:40:45;7.00;99.90
21895;DHT22;11112;51.270;7.224;2022-12-07T07:43:14;7.00;99.90
21895;DHT22;11112;51.270;7.224;2022-12-07T07:45:41;7.00;99.90
21895;DHT22;11112;51.270;7.224;2022-12-07T07:48:08;6.90;99.90
21895;DHT22;11112;51.270;7.224;2022-12-07T07:50:35;6.90;99.90
21895;DHT22;11112;51.270;7.224;2022-12-07T07:53:02;7.00;99.90
21895;DHT22;11112;51.270;7.224;2022-12-07T07:55:31;6.90;99.90
21895;DHT22;11112;51.270;7.224;2022-12-07T07:57:58;7.00;99.90
21895;DHT22;11112;51.270;7.224;2022-12-07T08:00:27;7.00;99.90
21895;DHT22;11112;51.270;7.224;2022-12-07T08:02:54;7.00;99.90
21895;DHT22;11112;51.270;7.224;2022-12-07T08:05:22;7.00;99.90
21895;DHT22;11112;51.270;7.224;2022-12-07T08:07:49;7.00;99.90
21895;DHT22;11112;51.270;7.224;2022-12-07T08:10:16;7.00;99.90
21895;DHT22;11112;51.270;7.224;2022-12-07T08:12:44;7.00;99.90
21895;DHT22;11112;51.270;7.224;2022-12-07T08:15:31;7.00;99.90
21895;DHT22;11112;51.270;7.224;2022-12-07T08:18:00;7.00;99.90
21895;DHT22;11112;51.270;7.224;2022-12-07T08:20:29;7.00;99.90
21895;DHT22;11112;51.270;7.224;2022-12-07T08:22:57;7.00;99.90
21895;DHT22;11112;51.270;7.224;2022-12-07T08:25:25;7.00;99.90
21895;DHT22;11112;51.270;7.224;2022-12-07T08:27:53;7.00;99.90
21895;DHT22;11112;51.270;7.224;2022-12-07T08:30:21;6.90;99.90
21895;DHT22;11112;51.270;7.224;2022-12-07T08:32:50;6.90;99.90
21895;DHT22;11112;51.270;7.224;2022-12-07T08:35:18;7.00;99.90
21895;DHT22;11112;51.270;7.224;2022-12-07T08:37:45;7.00;99.90
21895;DHT22;11112;51.270;7.224;2022-12-07T08:40:13;7.00;99.90
21895;DHT22;11112;51.270;7.224;2022-12-07T08:42:41;7.00;99.90
21895;DHT22;11112;51.270;7.224;2022-12-07T08:45:11;7.00;99.90
21895;DHT22;11112;51.270;7.224;2022-12-07T08:47:43;7.00;99.90
21895;DHT22;11112;51.270;7.224;2022-12-07T08:50:14;7.00;99.90
21895;DHT22;11112;51.270;7.224;2022-12-07T08:52:42;7.00;99.90
21895;DHT22;11112;51.270;7.224;2022-12-07T08:55:10;7.00;99.90
21895;DHT22;11112;51.270;7.224;2022-12-07T08:57:39;7.00;99.90
21895;DHT22;11112;51.270;7.224;2022-12-07T09:00:09;7.00;99.90
21895;DHT22;11112;51.270;7.224;2022-12-07T09:02:37;6.90;99.90
21895;DHT22;11112;51.270;7.224;2022-12-07T09:05:05;6.90;99.90
21895;DHT22;11112;51.270;7.224;2022-12-07T09:07:34;7.00;99.90
21895;DHT22;11112;51.270;7.224;2022-12-07T09:10:03;7.00;99.90
21895;DHT22;11112;51.270;7.224;2022-12-07T09:12:31;7.00;99.90
21895;DHT22;11112;51.270;7.224;2022-12-07T09:14:58;7.00;99.90
21895;DHT22;11112;51.270;7.224;2022-12-07T09:17:26;7.00;99.90
21895;DHT22;11112;51.270;7.224;2022-12-07T09:19:54;7.00;99.90
21895;DHT22;11112;51.270;7.224;2022-12-07T09:22:23;7.00;99.90
21895;DHT22;11112;51.270;7.224;2022-12-07T09:24:52;6.90;99.90
21895;DHT22;11112;51.270;7.224;2022-12-07T09:27:20;6.90;99.90
21895;DHT22;11112;51.270;7.224;2022-12-07T09:29:48;7.00;99.90
21895;DHT22;11112;51.270;7.224;2022-12-07T09:32:15;7.00;99.90
21895;DHT22;11112;51.270;7.224;2022-12-07T09:34:43;7.00;99.90
21895;DHT22;11112;51.270;7.224;2022-12-07T09:37:10;7.00;99.90
21895;DHT22;11112;51.270;7.224;2022-12-07T09:39:38;7.00;99.90
21895;DHT22;11112;51.270;7.224;2022-12-07T09:42:26;7.00;99.90
21895;DHT22;11112;51.270;7.224;2022-12-07T09:44:55;7.00;99.90
21895;DHT22;11112;51.270;7.224;2022-12-07T09:47:23;7.00;99.90
21895;DHT22;11112;51.270;7.224;2022-12-07T09:49:51;7.00;99.90
21895;DHT22;11112;51.270;7.224;2022-12-07T09:52:20;7.00;99.90
21895;DHT22;11112;51.270;7.224;2022-12-07T09:54:52;7.00;99.90
21895;DHT22;11112;51.270;7.224;2022-12-07T09:57:27;7.00;99.90
21895;DHT22;11112;51.270;7.224;2022-12-07T09:59:57;7.00;99.90
21895;DHT22;11112;51.270;7.224;2022-12-07T10:02:35;7.00;99.90
21895;DHT22;11112;51.270;7.224;2022-12-07T10:05:05;7.00;99.90
21895;DHT22;11112;51.270;7.224;2022-12-07T10:07:35;7.00;99.90
21895;DHT22;11112;51.270;7.224;2022-12-07T10:10:04;7.00;99.90
21895;DHT22;11112;51.270;7.224;2022-12-07T10:12:53;7.00;99.90
21895;DHT22;11112;51.270;7.224;2022-12-07T10:15:21;7.00;99.90
21895;DHT22;11112;51.270;7.224;2022-12-07T10:17:51;7.10;99.90
21895;DHT22;11112;51.270;7.224;2022-12-07T10:20:22;7.10;99.90
21895;DHT22;11112;51.270;7.224;2022-12-07T10:22:57;7.10;99.90
21895;DHT22;11112;51.270;7.224;2022-12-07T10:25:29;7.10;99.90
21895;DHT22;11112;51.270;7.224;2022-12-07T10:28:09;7.10;99.90
21895;DHT22;11112;51.270;7.224;2022-12-07T10:30:48;7.10;99.90
21895;DHT22;11112;51.270;7.224;2022-12-07T10:33:28;7.10;99.90
21895;DHT22;11112;51.270;7.224;2022-12-07T10:35:59;7.10;99.90
21895;DHT22;11112;51.270;7.224;2022-12-07T10:38:28;7.10;99.90
21895;DHT22;11112;51.270;7.224;2022-12-07T10:41:05;7.10;99.90
21895;DHT22;11112;51.270;7.224;2022-12-07T10:43:35;7.10;99.90
21895;DHT22;11112;51.270;7.224;2022-12-07T10:46:39;7.10;99.90
21895;DHT22;11112;51.270;7.224;2022-12-07T10:53:01;7.20;99.90
21895;DHT22;11112;51.270;7.224;2022-12-07T10:56:26;7.20;99.90
21895;DHT22;11112;51.270;7.224;2022-12-07T10:59:17;7.20;99.90
21895;DHT22;11112;51.270;7.224;2022-12-07T11:01:58;7.20;99.90
21895;DHT22;11112;51.270;7.224;2022-12-07T11:04:38;7.20;99.90
21895;DHT22;11112;51.270;7.224;2022-12-07T11:07:16;7.20;99.90
21895;DHT22;11112;51.270;7.224;2022-12-07T11:10:02;7.20;99.90
21895;DHT22;11112;51.270;7.224;2022-12-07T11:12:47;7.20;99.90
21895;DHT22;11112;51.270;7.224;2022-12-07T11:15:26;7.20;99.90
21895;DHT22;11112;51.270;7.224;2022-12-07T11:18:06;7.20;99.90
21895;DHT22;11112;51.270;7.224;2022-12-07T11:20:42;7.20;99.90
21895;DHT22;11112;51.270;7.224;2022-12-07T11:23:18;7.20;99.90
21895;DHT22;11112;51.270;7.224;2022-12-07T11:25:59;7.20;99.90
21895;DHT22;11112;51.270;7.224;2022-12-07T11:28:41;7.20;99.90
21895;DHT22;11112;51.270;7.224;2022-12-07T11:31:24;7.20;99.90
21895;DHT22;11112;51.270;7.224;2022-12-07T11:34:02;7.20;99.90
21895;DHT22;11112;51.270;7.224;2022-12-07T11:36:38;7.20;99.90
21895;DHT22;11112;51.270;7.224;2022-12-07T11:39:15;7.20;99.90
21895;DHT22;11112;51.270;7.224;2022-12-07T11:41:49;7.20;99.90
21895;DHT22;11112;51.270;7.224;2022-12-07T11:44:26;7.20;99.90
21895;DHT22;11112;51.270;7.224;2022-12-07T11:47:06;7.20;99.90
21895;DHT22;11112;51.270;7.224;2022-12-07T11:49:42;7.20;99.90
21895;DHT22;11112;51.270;7.224;2022-12-07T11:52:18;7.30;99.90
21895;DHT22;11112;51.270;7.224;2022-12-07T11:54:52;7.30;99.90
21895;DHT22;11112;51.270;7.224;2022-12-07T11:57:25;7.30;99.90
21895;DHT22;11112;51.270;7.224;2022-12-07T12:00:01;7.30;99.90
21895;DHT22;11112;51.270;7.224;2022-12-07T12:02:38;7.30;99.90
21895;DHT22;11112;51.270;7.224;2022-12-07T12:05:15;7.40;99.90
21895;DHT22;11112;51.270;7.224;2022-12-07T12:07:46;7.30;99.90
21895;DHT22;11112;51.270;7.224;2022-12-07T12:10:21;7.30;99.90
21895;DHT22;11112;51.270;7.224;2022-12-07T12:13:24;7.30;99.90
21895;DHT22;11112;51.270;7.224;2022-12-07T12:16:07;7.30;99.90
21895;DHT22;11112;51.270;7.224;2022-12-07T12:19:09;7.30;99.90
21895;DHT22;11112;51.270;7.224;2022-12-07T12:21:46;7.30;99.90
21895;DHT22;11112;51.270;7.224;2022-12-07T12:24:21;7.30;99.90
21895;DHT22;11112;51.270;7.224;2022-12-07T12:26:52;7.30;99.90
21895;DHT22;11112;51.270;7.224;2022-12-07T12:29:27;7.30;99.90
21895;DHT22;11112;51.270;7.224;2022-12-07T12:32:14;7.30;99.90
21895;DHT22;11112;51.270;7.224;2022-12-07T12:37:54;7.30;99.90
21895;DHT22;11112;51.270;7.224;2022-12-07T12:40:51;7.40;99.90
21895;DHT22;11112;51.270;7.224;2022-12-07T12:43:48;7.40;99.90
21895;DHT22;11112;51.270;7.224;2022-12-07T12:46:47;7.40;99.90
21895;DHT22;11112;51.270;7.224;2022-12-07T12:49:37;7.30;99.90
21895;DHT22;11112;51.270;7.224;2022-12-07T12:59:33;7.30;99.90
21895;DHT22;11112;51.270;7.224;2022-12-07T13:02:16;7.40;99.90
21895;DHT22;11112;51.270;7.224;2022-12-07T13:04:52;7.40;99.90
21895;DHT22;11112;51.270;7.224;2022-12-07T13:08:00;7.40;99.90
21895;DHT22;11112;51.270;7.224;2022-12-07T13:10:39;7.40;99.90
21895;DHT22;11112;51.270;7.224;2022-12-07T13:13:32;7.40;99.90
21895;DHT22;11112;51.270;7.224;2022-12-07T13:22:40;7.50;99.90
21895;DHT22;11112;51.270;7.224;2022-12-07T13:25:30;7.50;99.90
21895;DHT22;11112;51.270;7.224;2022-12-07T13:28:03;7.50;99.90
21895;DHT22;11112;51.270;7.224;2022-12-07T13:30:45;7.50;99.90
21895;DHT22;11112;51.270;7.224;2022-12-07T13:33:17;7.50;99.90
21895;DHT22;11112;51.270;7.224;2022-12-07T13:35:45;7.50;99.90
21895;DHT22;11112;51.270;7.224;2022-12-07T13:38:22;7.50;99.90
21895;DHT22;11112;51.270;7.224;2022-12-07T13:41:12;7.50;99.90
21895;DHT22;11112;51.270;7.224;2022-12-07T13:43:52;7.50;99.90
21895;DHT22;11112;51.270;7.224;2022-12-07T13:46:27;7.50;99.90
21895;DHT22;11112;51.270;7.224;2022-12-07T13:49:01;7.50;99.90
21895;DHT22;11112;51.270;7.224;2022-12-07T13:51:29;7.50;99.90
21895;DHT22;11112;51.270;7.224;2022-12-07T13:54:10;7.50;99.90
21895;DHT22;11112;51.270;7.224;2022-12-07T13:56:38;7.50;99.90
21895;DHT22;11112;51.270;7.224;2022-12-07T13:59:13;7.50;99.90
21895;DHT22;11112;51.270;7.224;2022-12-07T14:01:43;7.50;99.90
21895;DHT22;11112;51.270;7.224;2022-12-07T14:04:35;7.50;99.80
21895;DHT22;11112;51.270;7.224;2022-12-07T14:07:25;7.50;99.70
21895;DHT22;11112;51.270;7.224;2022-12-07T14:09:55;7.50;99.50
21895;DHT22;11112;51.270;7.224;2022-12-07T14:12:25;7.50;99.40
21895;DHT22;11112;51.270;7.224;2022-12-07T14:14:54;7.50;99.60
21895;DHT22;11112;51.270;7.224;2022-12-07T14:17:24;7.40;99.50
21895;DHT22;11112;51.270;7.224;2022-12-07T14:19:56;7.50;99.00
21895;DHT22;11112;51.270;7.224;2022-12-07T14:22:29;7.50;99.00
21895;DHT22;11112;51.270;7.224;2022-12-07T14:25:00;7.40;98.80
21895;DHT22;11112;51.270;7.224;2022-12-07T14:27:36;7.40;98.90
21895;DHT22;11112;51.270;7.224;2022-12-07T14:30:04;7.50;98.80
21895;DHT22;11112;51.270;7.224;2022-12-07T14:32:36;7.50;99.00
21895;DHT22;11112;51.270;7.224;2022-12-07T14:35:12;7.50;99.00
21895;DHT22;11112;51.270;7.224;2022-12-07T14:37:42;7.50;99.60
21895;DHT22;11112;51.270;7.224;2022-12-07T14:40:13;7.50;99.50
21895;DHT22;11112;51.270;7.224;2022-12-07T14:42:43;7.50;99.30
21895;DHT22;11112;51.270;7.224;2022-12-07T14:45:17;7.50;99.00
21895;DHT22;11112;51.270;7.224;2022-12-07T14:47:46;7.50;99.10
21895;DHT22;11112;51.270;7.224;2022-12-07T14:50:18;7.40;99.00
21895;DHT22;11112;51.270;7.224;2022-12-07T14:52:48;7.40;99.10
21895;DHT22;11112;51.270;7.224;2022-12-07T14:55:23;7.40;99.20
21895;DHT22;11112;51.270;7.224;2022-12-07T14:57:53;7.40;99.10
21895;DHT22;11112;51.270;7.224;2022-12-07T15:00:22;7.40;99.20
21895;DHT22;11112;51.270;7.224;2022-12-07T15:02:51;7.40;99.10
21895;DHT22;11112;51.270;7.224;2022-12-07T15:05:20;7.40;99.20
21895;DHT22;11112;51.270;7.224;2022-12-07T15:07:48;7.40;99.20
21895;DHT22;11112;51.270;7.224;2022-12-07T15:10:20;7.40;99.20
21895;DHT22;11112;51.270;7.224;2022-12-07T15:12:49;7.40;99.20
21895;DHT22;11112;51.270;7.224;2022-12-07T15:15:16;7.40;99.30
21895;DHT22;11112;51.270;7.224;2022-12-07T15:17:44;7.40;99.30
21895;DHT22;11112;51.270;7.224;2022-12-07T15:20:14;7.40;99.30
21895;DHT22;11112;51.270;7.224;2022-12-07T15:22:46;7.40;99.30
21895;DHT22;11112;51.270;7.224;2022-12-07T15:25:14;7.40;99.60
21895;DHT22;11112;51.270;7.224;2022-12-07T15:27:42;7.40;99.30
21895;DHT22;11112;51.270;7.224;2022-12-07T15:30:10;7.40;99.30
21895;DHT22;11112;51.270;7.224;2022-12-07T15:32:39;7.30;99.20
21895;DHT22;11112;51.270;7.224;2022-12-07T15:35:08;7.40;99.30
21895;DHT22;11112;51.270;7.224;2022-12-07T15:37:36;7.30;99.30
21895;DHT22;11112;51.270;7.224;2022-12-07T15:40:13;7.40;99.30
21895;DHT22;11112;51.270;7.224;2022-12-07T15:42:41;7.40;99.20
21895;DHT22;11112;51.270;7.224;2022-12-07T15:45:10;7.40;99.30
21895;DHT22;11112;51.270;7.224;2022-12-07T15:47:38;7.30;99.10
21895;DHT22;11112;51.270;7.224;2022-12-07T15:50:09;7.40;99.20
21895;DHT22;11112;51.270;7.224;2022-12-07T15:52:39;7.40;99.30
21895;DHT22;11112;51.270;7.224;2022-12-07T15:55:08;7.40;99.60
21895;DHT22;11112;51.270;7.224;2022-12-07T15:57:39;7.40;99.30
21895;DHT22;11112;51.270;7.224;2022-12-07T16:00:08;7.40;99.30
21895;DHT22;11112;51.270;7.224;2022-12-07T16:02:37;7.40;99.30
21895;DHT22;11112;51.270;7.224;2022-12-07T16:05:04;7.40;99.30
21895;DHT22;11112;51.270;7.224;2022-12-07T16:07:32;7.40;99.30
21895;DHT22;11112;51.270;7.224;2022-12-07T16:10:02;7.40;99.20
21895;DHT22;11112;51.270;7.224;2022-12-07T16:12:33;7.40;99.30
21895;DHT22;11112;51.270;7.224;2022-12-07T16:15:01;7.40;99.30
21895;DHT22;11112;51.270;7.224;2022-12-07T16:17:28;7.40;99.30
21895;DHT22;11112;51.270;7.224;2022-12-07T16:19:55;7.40;99.30
21895;DHT22;11112;51.270;7.224;2022-12-07T16:22:23;7.40;99.30
21895;DHT22;11112;51.270;7.224;2022-12-07T16:24:51;7.40;99.30
21895;DHT22;11112;51.270;7.224;2022-12-07T16:27:19;7.40;99.30
21895;DHT22;11112;51.270;7.224;2022-12-07T16:29:48;7.40;99.20
21895;DHT22;11112;51.270;7.224;2022-12-07T16:32:17;7.40;99.30
21895;DHT22;11112;51.270;7.224;2022-12-07T16:34:45;7.40;99.30
21895;DHT22;11112;51.270;7.224;2022-12-07T16:37:13;7.40;99.30